Time;durP1;ratioP1;P1;durP2;ratioP2;P2;SDS_P1;SDS_P2;PMS_P1;PMS_P2;Temp;Humidity;BMP_temperature;BMP_pressure;BME280_temperature;BME280_humidity;BME280_pressure;Samples;Min_cycle;Max_cycle;Signal;HPM_P1;HPM_P2
2022/03/07 00:03:23;;;;;;;;;;;;;;;0.77;53.47;100557.72;12187578;19;20021;-82
2022/03/07 00:07:25;;;;;;;8.55;4.55;;;;;;;0.75;52.64;100553.50;12203161;19;19907;-81
2022/03/07 00:11:28;;;;;;;8.13;4.72;;;;;;;0.76;52.62;100553.31;12211281;19;20751;-82
2022/03/07 00:15:30;;;;;;;;;;;;;;;0.70;52.73;100558.56;12179410;19;21097;-83
2022/03/07 00:19:32;;;;;;;7.88;4.18;;;;;;;0.73;52.05;100558.25;12204811;19;20302;-81
2022/03/07 00:23:36;;;;;;;7.00;4.75;;;;;;;0.62;52.39;100553.97;12202886;19;20065;-82
2022/03/07 00:27:38;;;;;;;8.47;4.17;;;;;;;0.57;52.83;100559.06;12188909;19;20069;-81
2022/03/07 00:31:39;;;;;;;6.93;4.63;;;;;;;0.53;52.47;100555.81;12209016;19;20011;-80
2022/03/07 00:35:41;;;;;;;9.38;4.65;;;;;;;0.44;52.68;100554.94;12205680;19;20011;-81
2022/03/07 00:39:43;;;;;;;7.47;4.78;;;;;;;0.43;52.58;100563.25;12189612;19;20118;-81
2022/03/07 00:43:45;;;;;;;9.10;4.28;;;;;;;0.33;52.92;100566.13;12203126;19;20007;-79
2022/03/07 00:47:46;;;;;;;9.15;4.65;;;;;;;0.23;53.34;100573.53;12204691;19;20110;-80
2022/03/07 00:51:48;;;;;;;7.10;4.55;;;;;;;0.19;53.16;100574.88;12182367;19;20010;-81
2022/03/07 00:55:51;;;;;;;6.57;4.95;;;;;;;0.18;53.01;100568.63;12200690;19;20011;-80
2022/03/07 00:59:55;;;;;;;8.02;3.83;;;;;;;0.18;53.05;100565.91;12202917;19;20452;-81
2022/03/07 01:03:56;;;;;;;10.30;4.43;;;;;;;0.13;53.33;100573.69;12177786;19;20090;-80
2022/03/07 01:07:58;;;;;;;7.03;4.00;;;;;;;0.07;53.39;100565.34;12206316;19;20617;-81
2022/03/07 01:12:01;;;;;;;;;;;;;;;0.02;53.89;100560.41;12208968;19;20018;-81
2022/03/07 01:16:03;;;;;;;7.35;3.55;;;;;;;-0.05;53.93;100560.22;12179764;19;19932;-81
2022/03/07 01:20:08;;;;;;;6.80;3.53;;;;;;;-0.11;53.78;100560.88;12223415;19;20006;-81
2022/03/07 01:24:10;;;;;;;7.13;3.40;;;;;;;-0.13;54.42;100554.75;12214576;19;20471;-79
2022/03/07 01:28:12;;;;;;;8.80;5.05;;;;;;;-0.15;54.10;100548.69;12178086;19;20023;-80
2022/03/07 01:32:14;;;;;;;5.82;3.75;;;;;;;-0.19;54.01;100552.69;12205667;19;20045;-79
2022/03/07 01:36:17;;;;;;;7.85;3.38;;;;;;;-0.20;53.85;100553.72;12198191;19;20003;-80
2022/03/07 01:40:19;;;;;;;6.28;3.58;;;;;;;-0.27;54.20;100547.25;12183349;19;20484;-79
2022/03/07 01:44:24;;;;;;;6.50;3.50;;;;;;;-0.24;53.87;100546.91;12195405;19;20010;-81
2022/03/07 01:48:26;;;;;;;5.50;3.17;;;;;;;-0.19;53.69;100547.28;12179428;19;20039;-79
2022/03/07 01:52:28;;;;;;;6.10;3.10;;;;;;;-0.18;53.67;100542.72;12195271;19;20471;-81
2022/03/07 01:56:30;;;;;;;6.10;3.25;;;;;;;-0.23;53.77;100548.63;12201706;19;20015;-80
2022/03/07 02:00:32;;;;;;;6.65;3.95;;;;;;;-0.23;54.25;100548.63;12175623;19;20015;-80
2022/03/07 02:04:37;;;;;;;4.70;3.35;;;;;;;-0.19;53.97;100541.88;12208629;19;20080;-80
2022/03/07 02:08:41;;;;;;;6.00;3.45;;;;;;;-0.16;53.91;100552.38;12216110;19;20031;-81
2022/03/07 02:12:49;;;;;;;6.57;3.50;;;;;;;-0.18;53.79;100557.09;12196601;19;20070;-81
2022/03/07 02:16:52;;;;;;;7.80;3.42;;;;;;;-0.17;53.91;100558.81;12214639;19;20015;-80
2022/03/07 02:21:04;;;;;;;4.60;3.15;;;;;;;-0.17;53.82;100558.81;12216397;19;20055;-80
2022/03/07 02:25:07;;;;;;;7.47;3.55;;;;;;;-0.13;53.90;100557.47;12177198;19;20088;-81
2022/03/07 02:29:12;;;;;;;6.35;3.60;;;;;;;-0.18;53.62;100561.66;12218643;19;20003;-80
2022/03/07 02:33:16;;;;;;;4.47;3.25;;;;;;;-0.27;54.05;100569.78;12221383;19;20018;-80
2022/03/07 02:37:20;;;;;;;5.75;3.53;;;;;;;-0.29;53.89;100569.09;12193927;19;20009;-79
2022/03/07 02:41:25;;;;;;;5.28;3.35;;;;;;;-0.31;54.04;100565.66;12216782;19;19999;-79
2022/03/07 02:45:28;;;;;;;4.68;3.05;;;;;;;-0.31;53.81;100560.25;12201844;19;20007;-80
2022/03/07 02:49:29;;;;;;;8.30;3.55;;;;;;;-0.37;53.93;100560.06;12220859;19;20063;-80
2022/03/07 02:53:32;;;;;;;6.43;3.53;;;;;;;-0.37;54.11;100560.06;12218880;19;20006;-80
2022/03/07 02:57:34;;;;;;;8.98;4.03;;;;;;;-0.39;53.77;100552.09;12186902;19;20413;-80
2022/03/07 03:01:36;;;;;;;4.57;2.85;;;;;;;-0.37;53.66;100551.94;12210773;19;20074;-80
2022/03/07 03:05:37;;;;;;;5.10;3.63;;;;;;;-0.37;53.67;100550.06;12213359;19;20007;-79
2022/03/07 03:09:39;;;;;;;6.70;3.25;;;;;;;-0.39;54.02;100548.53;12186087;19;20002;-80
2022/03/07 03:13:41;;;;;;;5.82;3.53;;;;;;;-0.44;54.17;100548.19;12212755;19;20077;-80
2022/03/07 03:17:44;;;;;;;6.57;3.75;;;;;;;-0.51;54.34;100551.50;12206954;19;20066;-80
2022/03/07 03:21:45;;;;;;;7.05;3.42;;;;;;;-0.54;54.11;100549.13;12195138;19;20847;-79
2022/03/07 03:25:47;;;;;;;5.80;3.83;;;;;;;-0.55;54.27;100552.00;12202362;19;20090;-80
2022/03/07 03:29:49;;;;;;;6.38;3.88;;;;;;;-0.53;54.21;100550.84;12210784;19;20018;-80
2022/03/07 03:33:53;;;;;;;5.20;3.30;;;;;;;-0.53;53.99;100550.84;12186354;19;20051;-80
2022/03/07 03:37:54;;;;;;;6.07;3.55;;;;;;;-0.53;54.03;100561.66;12212321;19;20002;-81
2022/03/07 03:41:56;;;;;;;7.07;3.95;;;;;;;-0.58;53.88;100558.56;12207243;19;20002;-81
2022/03/07 03:45:58;;;;;;;7.95;3.90;;;;;;;-0.56;53.94;100570.09;12188263;19;20074;-81
2022/03/07 03:50:00;;;;;;;7.50;4.30;;;;;;;-0.59;53.68;100567.72;12213701;19;20007;-80
2022/03/07 03:54:02;;;;;;;9.80;4.38;;;;;;;-0.63;53.96;100566.31;12207921;19;20344;-79
2022/03/07 03:58:03;;;;;;;8.45;4.63;;;;;;;-0.69;54.00;100573.22;12186789;19;20426;-79
2022/03/07 04:02:05;;;;;;;9.60;5.10;;;;;;;-0.69;53.78;100580.50;12207464;19;20645;-80
2022/03/07 04:06:09;;;;;;;11.07;5.22;;;;;;;-0.77;53.94;100578.59;12205720;19;20010;-79
2022/03/07 04:10:13;;;;;;;11.70;5.78;;;;;;;-0.79;53.37;100577.03;12189025;19;20014;-80
2022/03/07 04:14:17;;;;;;;10.85;5.15;;;;;;;-0.91;53.61;100579.16;12206313;19;20092;-79
2022/03/07 04:18:21;;;;;;;11.73;6.30;;;;;;;-1.07;53.69;100579.00;12199361;19;20028;-80
2022/03/07 04:22:24;;;;;;;12.05;5.53;;;;;;;-1.28;53.60;100593.72;12209097;19;20011;-79
2022/03/07 04:26:26;;;;;;;10.98;6.25;;;;;;;-1.36;54.10;100587.38;12213544;19;20018;-81
2022/03/07 04:30:28;;;;;;;13.45;6.22;;;;;;;-1.40;53.93;100587.66;12189750;19;20010;-80
2022/03/07 04:34:29;;;;;;;10.85;5.97;;;;;;;-1.38;53.70;100588.34;12206500;19;20075;-79
2022/03/07 04:38:32;;;;;;;13.07;6.78;;;;;;;-1.42;53.46;100586.13;12211786;19;20006;-79
2022/03/07 04:42:34;;;;;;;13.65;6.57;;;;;;;-1.51;53.63;100590.59;12190175;19;20010;-79
2022/03/07 04:46:36;;;;;;;14.90;6.97;;;;;;;-1.61;53.40;100585.25;12204595;19;20070;-79
2022/03/07 04:50:38;;;;;;;11.88;5.75;;;;;;;-1.70;53.60;100601.50;12207340;19;20021;-79
2022/03/07 04:54:39;;;;;;;12.57;6.78;;;;;;;-1.79;53.89;100597.84;12185745;19;20029;-79
2022/03/07 04:58:41;;;;;;;11.82;6.30;;;;;;;-1.92;54.77;100594.66;12211202;19;20014;-79
2022/03/07 05:02:43;;;;;;;15.55;7.32;;;;;;;-2.08;54.64;100601.56;12212882;19;20023;-80
2022/03/07 05:06:45;;;;;;;12.70;6.65;;;;;;;-2.15;54.81;100605.84;12184868;19;20015;-81
2022/03/07 05:10:46;;;;;;;12.95;7.15;;;;;;;-2.21;54.54;100611.00;12207355;19;20078;-79
2022/03/07 05:14:51;;;;;;;13.38;7.57;;;;;;;-2.22;54.64;100609.31;12208451;19;20019;-79
2022/03/07 05:18:52;;;;;;;12.02;6.65;;;;;;;-2.30;54.65;100610.03;12183448;19;20094;-79
2022/03/07 05:22:54;;;;;;;11.15;6.45;;;;;;;-2.33;55.09;100608.47;12200572;19;20002;-81
2022/03/07 05:26:56;;;;;;;11.00;6.40;;;;;;;-2.38;54.87;100616.19;12203334;19;20026;-81
2022/03/07 05:30:58;;;;;;;12.57;7.63;;;;;;;-2.37;54.85;100617.03;12179589;19;20117;-80
2022/03/07 05:34:59;;;;;;;16.38;7.57;;;;;;;-2.27;54.73;100614.28;12207910;19;20115;-81
2022/03/07 05:39:02;;;;;;;14.05;7.28;;;;;;;-2.16;54.71;100622.22;12205573;19;20082;-81
2022/03/07 05:43:04;;;;;;;12.45;7.10;;;;;;;-2.11;54.59;100623.47;12184421;19;20002;-82
2022/03/07 05:47:11;;;;;;;14.95;7.70;;;;;;;-2.04;54.67;100623.72;12199508;19;20006;-81
2022/03/07 05:51:15;;;;;;;11.75;6.63;;;;;;;-1.89;54.99;100619.53;12205417;19;20010;-82
2022/03/07 05:55:21;;;;;;;13.98;7.75;;;;;;;-1.76;54.61;100616.47;12179748;19;20536;-82
2022/03/07 05:59:24;;;;;;;12.93;7.22;;;;;;;-1.66;54.66;100614.59;12205837;19;20039;-83
2022/03/07 06:03:26;;;;;;;13.75;7.32;;;;;;;-1.56;54.70;100625.31;12193594;19;20022;-81
2022/03/07 06:07:28;;;;;;;13.45;7.32;;;;;;;-1.50;54.74;100632.81;12208186;19;20022;-80
2022/03/07 06:11:29;;;;;;;15.27;7.72;;;;;;;-1.42;54.48;100632.94;12202522;19;20529;-81
2022/03/07 06:15:32;;;;;;;16.50;7.93;;;;;;;-1.34;54.70;100636.72;12180286;19;20418;-82
2022/03/07 06:19:36;;;;;;;11.95;7.15;;;;;;;-1.33;54.64;100635.72;12215450;19;20587;-80
2022/03/07 06:23:38;;;;;;;18.00;7.97;;;;;;;-1.45;54.86;100641.34;12178350;19;20010;-80
2022/03/07 06:27:40;;;;;;;;;;;;;;;-1.54;54.97;100647.66;12181140;19;20027;-83
2022/03/07 06:31:42;;;;;;;13.75;7.30;;;;;;;-1.63;54.78;100645.88;12199644;19;19906;-81
2022/03/07 06:35:45;;;;;;;15.35;7.45;;;;;;;-1.65;54.87;100655.97;12205695;19;20024;-82
2022/03/07 06:39:47;;;;;;;13.40;7.72;;;;;;;-1.72;55.11;100649.47;12186039;19;20022;-81
2022/03/07 06:43:49;;;;;;;15.60;7.75;;;;;;;-1.73;55.27;100651.28;12213640;19;20010;-81
2022/03/07 06:47:51;;;;;;;12.90;7.32;;;;;;;-1.71;55.12;100646.59;12216257;19;20006;-81
2022/03/07 06:51:52;;;;;;;15.90;8.80;;;;;;;-1.63;55.50;100653.97;12201478;19;20015;-81
2022/03/07 06:55:54;;;;;;;14.40;8.00;;;;;;;-1.62;55.12;100651.09;12215254;19;20047;-81
2022/03/07 06:59:57;;;;;;;13.32;7.57;;;;;;;-1.57;55.03;100658.78;12225571;19;20011;-82
2022/03/07 07:03:59;;;;;;;15.30;8.40;;;;;;;-1.54;54.44;100653.06;12200469;19;20006;-80
2022/03/07 07:08:00;;;;;;;13.48;8.60;;;;;;;-1.48;54.02;100663.28;12228941;19;20075;-81
2022/03/07 07:12:03;;;;;;;11.73;7.10;;;;;;;-1.39;54.37;100664.22;12225849;19;20370;-80
2022/03/07 07:16:05;;;;;;;11.07;6.13;;;;;;;-1.31;53.83;100669.72;12197907;19;20002;-81
2022/03/07 07:20:08;;;;;;;13.37;7.17;;;;;;;-1.19;53.75;100664.91;12225467;19;20011;-80
2022/03/07 07:24:11;;;;;;;11.55;7.32;;;;;;;-1.13;53.58;100661.63;12219925;19;20019;-80
2022/03/07 07:28:13;;;;;;;6.63;4.50;;;;;;;-1.05;53.56;100661.69;12198507;19;20014;-81
2022/03/07 07:32:25;;;;;;;12.88;6.30;;;;;;;-1.04;52.32;100671.53;12220326;19;20035;-80
2022/03/07 07:36:29;;;;;;;11.30;6.40;;;;;;;-0.84;52.19;100671.38;12198571;19;20082;-80
2022/03/07 07:40:34;;;;;;;9.15;5.40;;;;;;;-0.75;51.46;100667.72;12225778;19;20027;-83
2022/03/07 07:44:37;;;;;;;12.15;6.30;;;;;;;-0.62;51.49;100672.75;12219750;19;20047;-80
2022/03/07 07:48:38;;;;;;;9.27;5.25;;;;;;;-0.46;51.34;100683.72;12209486;19;20010;-81
2022/03/07 07:52:40;;;;;;;9.27;5.82;;;;;;;-0.35;50.75;100688.03;12254830;19;20069;-81
2022/03/07 07:56:43;;;;;;;8.38;5.15;;;;;;;-0.22;50.05;100698.44;12255725;19;20007;-83
2022/03/07 08:00:50;;;;;;;8.80;5.05;;;;;;;0.00;50.23;100689.81;12234154;19;20007;-81
2022/03/07 08:04:53;;;;;;;9.48;5.57;;;;;;;0.17;49.37;100698.88;12249306;19;19995;-82
2022/03/07 08:09:02;;;;;;;9.90;5.90;;;;;;;0.27;48.61;100696.91;12220908;19;20478;-79
2022/03/07 08:13:05;;;;;;;13.27;8.05;;;;;;;0.32;48.21;100691.81;12188498;19;20464;-80
2022/03/07 08:17:19;;;;;;;9.85;6.35;;;;;;;0.32;47.72;100699.13;12209534;19;20085;-82
2022/03/07 08:21:25;;;;;;;9.77;5.80;;;;;;;0.48;47.42;100714.59;12182832;19;20479;-82
2022/03/07 08:25:30;;;;;;;8.45;5.68;;;;;;;0.61;46.83;100710.44;12212223;19;20472;-82
2022/03/07 08:29:32;;;;;;;6.95;4.43;;;;;;;0.58;46.08;100708.06;12202970;19;20456;-80
2022/03/07 08:33:38;;;;;;;12.65;5.88;;;;;;;0.72;46.04;100709.31;12189215;19;20007;-83
2022/03/07 08:37:43;;;;;;;10.25;5.18;;;;;;;1.00;45.72;100711.75;12207284;19;20019;-81
2022/03/07 08:41:44;;;;;;;14.30;7.70;;;;;;;1.23;45.75;100715.56;12205478;19;20015;-81
2022/03/07 08:45:47;;;;;;;9.10;5.47;;;;;;;1.29;44.65;100708.59;12182629;19;20014;-83
2022/03/07 08:49:57;;;;;;;13.98;7.40;;;;;;;1.46;44.25;100709.44;12204797;19;20018;-82
2022/03/07 08:54:00;;;;;;;9.65;5.00;;;;;;;1.57;44.34;100711.84;12205502;19;20007;-82
2022/03/07 08:58:02;;;;;;;8.13;4.88;;;;;;;1.72;43.96;100706.56;12184442;19;20013;-80
2022/03/07 09:02:09;;;;;;;8.60;5.03;;;;;;;1.78;43.87;100727.63;12207633;19;20362;-79
2022/03/07 09:06:17;;;;;;;8.35;5.10;;;;;;;1.78;43.90;100717.59;12209598;19;20353;-82
2022/03/07 09:10:26;;;;;;;7.40;4.30;;;;;;;1.90;43.41;100717.25;12185096;19;20155;-83
2022/03/07 09:14:34;;;;;;;8.80;5.25;;;;;;;2.07;43.51;100715.38;12201856;19;20609;-79
2022/03/07 09:18:35;;;;;;;7.63;5.10;;;;;;;2.22;43.38;100719.94;12185216;19;20013;-81
2022/03/07 09:22:44;;;;;;;7.57;4.80;;;;;;;2.29;42.91;100714.69;12202775;19;20070;-83
2022/03/07 09:26:49;;;;;;;8.50;4.53;;;;;;;2.51;43.07;100705.75;12204569;19;20031;-82
2022/03/07 09:30:50;;;;;;;8.43;4.80;;;;;;;2.44;42.50;100712.94;12172702;19;20015;-80
2022/03/07 09:34:56;;;;;;;9.00;4.90;;;;;;;2.38;42.40;100701.88;12207860;19;20109;-80
2022/03/07 09:38:58;;;;;;;8.85;4.88;;;;;;;2.54;42.89;100711.88;12211666;19;20014;-79
2022/03/07 09:43:00;;;;;;;8.60;4.82;;;;;;;2.92;42.63;100715.63;12182382;19;20031;-81
2022/03/07 09:47:03;;;;;;;6.63;4.23;;;;;;;2.95;42.23;100715.25;12206360;19;20030;-80
2022/03/07 09:51:05;;;;;;;8.55;5.05;;;;;;;2.82;42.14;100706.81;12206473;19;20005;-80
2022/03/07 09:55:08;;;;;;;6.53;5.10;;;;;;;2.97;42.22;100714.06;12176998;19;20020;-79
2022/03/07 09:59:09;;;;;;;;;;;;;;;2.92;42.29;100707.44;12201037;19;20019;-81
2022/03/07 10:03:14;;;;;;;10.45;5.28;;;;;;;2.92;42.50;100721.06;12195175;19;19914;-82
2022/03/07 10:07:22;;;;;;;8.50;5.55;;;;;;;3.12;42.19;100725.03;12188802;19;20110;-82
2022/03/07 10:11:31;;;;;;;9.32;4.57;;;;;;;3.29;41.78;100724.94;12199054;19;20027;-81
2022/03/07 10:15:38;;;;;;;8.32;5.43;;;;;;;3.34;41.72;100725.25;12176913;19;20361;-82
2022/03/07 10:19:45;;;;;;;10.98;5.05;;;;;;;3.39;40.85;100701.88;12200611;19;20354;-82
2022/03/07 10:23:53;;;;;;;7.43;4.88;;;;;;;3.67;41.89;100709.50;12192233;19;20074;-80
2022/03/07 10:27:56;;;;;;;8.70;5.30;;;;;;;3.96;41.14;100705.16;12189234;19;20006;-81
2022/03/07 10:32:14;;;;;;;6.85;4.55;;;;;;;3.97;40.48;100698.66;12208725;19;20020;-83
2022/03/07 10:36:36;;;;;;;7.18;4.57;;;;;;;3.92;40.95;100707.41;12206192;19;20010;-81
2022/03/07 10:40:54;;;;;;;7.55;4.57;;;;;;;4.05;40.65;100702.16;12219956;19;20014;-84
2022/03/07 10:45:09;;;;;;;6.95;5.07;;;;;;;4.02;40.62;100699.81;12221904;19;20006;-83
2022/03/07 10:49:17;;;;;;;6.75;4.50;;;;;;;4.07;39.81;100691.91;12223885;19;20009;-83
2022/03/07 10:53:39;;;;;;;12.65;5.07;;;;;;;3.94;40.92;100699.03;12221088;19;20035;-83
2022/03/07 10:57:42;;;;;;;7.32;4.60;;;;;;;4.05;40.44;100707.63;12195152;19;20024;-82
2022/03/07 11:01:45;;;;;;;9.27;4.93;;;;;;;4.37;40.33;100707.47;12205363;19;20006;-81
2022/03/07 11:05:47;;;;;;;8.48;5.22;;;;;;;4.42;40.23;100692.22;12212499;19;19998;-83
2022/03/07 11:09:52;;;;;;;6.90;5.10;;;;;;;4.66;40.33;100698.44;12197195;19;20022;-82
2022/03/07 11:13:55;;;;;;;7.82;4.97;;;;;;;4.88;40.04;100691.13;12209113;19;20010;-85
2022/03/07 11:17:59;;;;;;;9.80;5.55;;;;;;;4.84;39.62;100701.59;12208885;19;20007;-82
2022/03/07 11:23:05;;;;;;;8.02;4.70;;;;;;;4.94;39.35;100701.31;12180619;19;20032;-83
2022/03/07 11:27:41;;;;;;;8.50;5.30;;;;;;;4.87;38.55;100682.09;12202554;19;20040;-82
2022/03/07 11:31:59;;;;;;;11.02;6.43;;;;;;;5.12;39.15;100689.97;12184689;19;20110;-82
2022/03/07 11:41:36;;;;;;;7.38;5.20;;;;;;;5.30;38.52;100682.19;12105759;19;2004445;-83
2022/03/07 11:46:29;;;;;;;9.32;5.60;;;;;;;5.24;38.85;100675.59;12163269;19;20090;-84
2022/03/07 11:55:40;;;;;;;7.88;4.95;;;;;;;5.90;37.84;100650.75;12198818;19;20027;-85
2022/03/07 11:59:42;;;;;;;10.68;5.63;;;;;;;6.25;37.80;100636.31;12200964;19;20007;-83
2022/03/07 12:03:45;;;;;;;8.60;5.78;;;;;;;6.66;37.11;100638.19;12178932;19;20480;-83
2022/03/07 12:07:47;;;;;;;11.93;7.20;;;;;;;7.25;36.62;100637.53;12208570;19;20014;-84
2022/03/07 12:11:58;;;;;;;9.00;6.00;;;;;;;7.49;36.36;100620.47;12205713;19;20002;-83
2022/03/07 12:16:00;;;;;;;8.65;6.55;;;;;;;8.05;35.24;100618.34;12184739;19;20378;-85
2022/03/07 12:20:03;;;;;;;9.75;6.07;;;;;;;7.92;35.17;100610.97;12201360;19;20007;-82
2022/03/07 12:24:06;;;;;;;7.53;6.38;;;;;;;8.30;34.74;100615.75;12206504;19;20009;-82
2022/03/07 12:28:08;;;;;;;7.18;5.32;;;;;;;8.65;34.20;100602.56;12190162;19;20011;-83
2022/03/07 12:32:10;;;;;;;8.00;6.20;;;;;;;8.47;33.31;100603.25;12205324;19;20010;-81
2022/03/07 12:36:15;;;;;;;8.50;5.60;;;;;;;9.00;33.68;100599.44;12208523;19;20267;-83
2022/03/07 12:40:20;;;;;;;10.07;5.95;;;;;;;9.26;32.83;100598.44;12179184;19;20006;-84
2022/03/07 12:44:36;;;;;;;10.05;6.03;;;;;;;9.70;32.48;100593.88;12200244;19;20026;-82
2022/03/07 12:48:53;;;;;;;10.65;7.30;;;;;;;9.93;31.83;100594.03;12184312;19;20066;-85
2022/03/07 12:52:55;;;;;;;8.80;6.50;;;;;;;10.40;32.05;100568.81;12180648;19;20011;-83
2022/03/07 12:57:14;;;;;;;11.73;5.75;;;;;;;10.14;30.73;100561.66;12224632;19;20022;-79
2022/03/07 13:01:34;;;;;;;6.20;5.22;;;;;;;11.39;30.97;100564.66;12175217;19;20010;-82
2022/03/07 13:10:27;;;;;;;8.00;5.72;;;;;;;11.52;29.50;100549.81;12209334;19;20025;-82
2022/03/07 13:14:48;;;;;;;9.00;5.93;;;;;;;11.88;29.23;100547.94;12200136;19;20104;-83
2022/03/07 13:19:26;;;;;;;9.55;6.65;;;;;;;11.83;28.95;100542.25;12191060;19;20028;-82
2022/03/07 13:23:57;;;;;;;7.28;6.03;;;;;;;10.90;29.90;100558.38;12197434;19;20056;-82
2022/03/07 13:28:06;;;;;;;8.05;5.90;;;;;;;9.58;31.36;100555.22;12170309;19;20014;-81
2022/03/07 13:32:13;;;;;;;9.73;6.50;;;;;;;8.52;32.27;100555.94;12192884;19;20547;-83
2022/03/07 13:36:20;;;;;;;9.30;6.53;;;;;;;7.79;33.21;100539.63;12187473;19;20018;-80
2022/03/07 13:40:32;;;;;;;8.20;6.57;;;;;;;7.54;33.94;100546.63;12172992;19;20072;-85
2022/03/07 13:44:57;;;;;;;7.75;5.72;;;;;;;7.92;33.37;100545.13;12192333;19;21413;-83
2022/03/07 13:49:04;;;;;;;8.32;6.40;;;;;;;8.64;32.80;100532.19;12173002;19;20030;-85
2022/03/07 13:57:20;;;;;;;8.38;5.88;;;;;;;7.61;34.12;100513.72;12224335;19;20014;-86
2022/03/07 14:01:33;;;;;;;10.90;6.15;;;;;;;7.06;34.83;100521.34;12169553;19;20014;-84
2022/03/07 14:05:46;;;;;;;9.20;6.15;;;;;;;6.47;35.87;100524.78;12194381;19;20848;-81
2022/03/07 14:10:02;;;;;;;9.88;5.82;;;;;;;6.12;36.20;100516.66;12179071;19;20967;-84
2022/03/07 14:14:17;;;;;;;9.13;5.90;;;;;;;5.69;37.07;100514.91;12206499;19;20014;-82
2022/03/07 14:18:27;;;;;;;7.95;5.70;;;;;;;5.52;37.43;100504.50;12158067;19;20006;-83
2022/03/07 14:22:29;;;;;;;6.30;4.32;;;;;;;5.50;37.39;100512.88;12197192;19;20033;-88
2022/03/07 14:26:32;;;;;;;9.37;5.80;;;;;;;5.29;37.86;100510.19;12200633;19;20014;-82
2022/03/07 14:30:41;;;;;;;10.05;5.68;;;;;;;5.41;37.81;100519.53;12179357;19;20018;-82
2022/03/07 14:34:43;;;;;;;;;;;;;;;5.33;38.19;100517.81;12193585;19;20009;-80
2022/03/07 14:38:47;;;;;;;9.50;6.10;;;;;;;5.39;37.80;100506.09;12199185;19;19932;-85
2022/03/07 14:42:49;;;;;;;8.50;5.85;;;;;;;5.23;38.46;100525.50;12184114;19;20011;-82
2022/03/07 14:46:51;;;;;;;;;;;;;;;5.24;38.69;100521.75;12200546;19;20034;-82
2022/03/07 14:50:53;;;;;;;10.18;6.05;;;;;;;5.39;38.77;100508.81;12222060;19;20390;-83
2022/03/07 14:54:55;;;;;;;9.27;5.95;;;;;;;5.62;38.18;100519.50;12156482;19;20567;-81
2022/03/07 14:59:23;;;;;;;10.32;6.43;;;;;;;5.71;38.01;100511.97;12196609;19;20051;-81
2022/03/07 15:03:29;;;;;;;10.07;6.07;;;;;;;6.01;37.64;100515.34;12213050;19;20013;-80
2022/03/07 15:07:35;;;;;;;11.48;6.13;;;;;;;6.24;37.47;100509.53;12176985;19;20015;-81
2022/03/07 15:11:40;;;;;;;10.20;6.75;;;;;;;6.80;36.88;100508.44;12200861;19;20035;-81
2022/03/07 15:15:43;;;;;;;9.80;6.28;;;;;;;7.44;35.75;100504.25;12184834;19;20023;-81
2022/03/07 15:19:46;;;;;;;8.93;6.55;;;;;;;7.79;34.86;100493.00;12207383;19;20118;-81
2022/03/07 15:23:48;;;;;;;8.77;6.10;;;;;;;8.06;35.06;100504.75;12200270;19;20473;-82
2022/03/07 15:27:50;;;;;;;12.18;6.50;;;;;;;8.01;34.90;100493.59;12181473;19;20019;-81
2022/03/07 15:31:52;;;;;;;10.77;6.43;;;;;;;7.98;35.00;100498.44;12204378;19;20007;-81
2022/03/07 15:35:54;;;;;;;9.48;6.68;;;;;;;7.96;34.80;100500.53;12210345;19;20202;-81
2022/03/07 15:39:56;;;;;;;9.45;6.32;;;;;;;7.66;35.45;100502.94;12181179;19;20014;-82
2022/03/07 15:43:58;;;;;;;9.82;6.57;;;;;;;7.11;35.47;100505.13;12195751;19;20074;-80
2022/03/07 15:48:00;;;;;;;13.93;7.35;;;;;;;6.65;35.91;100502.31;12203142;19;20006;-81
2022/03/07 15:52:02;;;;;;;9.32;6.40;;;;;;;6.34;36.03;100493.59;12188935;19;20023;-81
2022/03/07 15:56:06;;;;;;;8.93;6.38;;;;;;;5.98;36.37;100490.25;12204534;19;20034;-81
2022/03/07 16:00:09;;;;;;;9.20;6.60;;;;;;;5.74;36.67;100486.09;12202081;19;20010;-81
2022/03/07 16:04:13;;;;;;;9.48;6.45;;;;;;;5.64;37.13;100481.84;12183574;19;20502;-81
2022/03/07 16:08:14;;;;;;;11.05;7.15;;;;;;;5.59;37.21;100484.38;12209473;19;20019;-81
2022/03/07 16:12:16;;;;;;;9.63;6.72;;;;;;;5.36;37.31;100490.09;12232475;19;20014;-81
2022/03/07 16:16:27;;;;;;;11.50;7.15;;;;;;;5.32;37.15;100485.22;12184781;19;20026;-80
2022/03/07 16:20:29;;;;;;;9.85;6.32;;;;;;;5.15;37.82;100496.44;12201927;19;20027;-80
2022/03/07 16:24:39;;;;;;;11.00;6.75;;;;;;;4.94;37.77;100491.88;12190381;19;20006;-81
2022/03/07 16:28:41;;;;;;;9.90;5.95;;;;;;;4.90;38.36;100482.34;12201236;19;20077;-81
2022/03/07 16:32:43;;;;;;;9.20;6.00;;;;;;;4.81;38.32;100491.72;12200067;19;20031;-80
2022/03/07 16:36:45;;;;;;;10.77;6.78;;;;;;;4.68;38.61;100497.91;12188649;19;20423;-80
2022/03/07 16:40:49;;;;;;;11.30;7.22;;;;;;;4.65;38.71;100497.47;12200773;19;20026;-81
2022/03/07 16:44:50;;;;;;;11.25;6.55;;;;;;;4.58;38.71;100497.41;12203574;19;20302;-80
2022/03/07 16:48:52;;;;;;;10.50;6.70;;;;;;;4.46;39.43;100496.19;12169620;19;20013;-80
2022/03/07 16:52:54;;;;;;;9.98;6.60;;;;;;;4.39;38.99;100495.28;12202359;19;20474;-81
2022/03/07 16:56:56;;;;;;;10.10;6.95;;;;;;;4.37;39.23;100505.53;12203182;19;20024;-80
2022/03/07 17:00:58;;;;;;;10.48;6.55;;;;;;;4.23;39.25;100508.13;12192952;19;20014;-81
2022/03/07 17:05:01;;;;;;;9.55;6.55;;;;;;;4.13;39.51;100517.63;12196694;19;20011;-81
2022/03/07 17:09:03;;;;;;;9.63;6.17;;;;;;;4.00;39.55;100512.84;12207235;19;20011;-79
2022/03/07 17:13:11;;;;;;;9.32;6.10;;;;;;;3.68;40.92;100508.66;12186233;19;20369;-81
2022/03/07 17:17:14;;;;;;;10.05;5.88;;;;;;;3.39;41.15;100518.47;12199553;19;20453;-79
2022/03/07 17:21:18;;;;;;;12.13;6.72;;;;;;;3.14;41.58;100529.63;12199984;19;20492;-80
2022/03/07 17:25:21;;;;;;;;;;;;;;;2.93;43.61;100529.47;12198409;19;20091;-79
2022/03/07 17:29:25;;;;;;;;;;;;;;;2.71;42.80;100529.28;12232461;19;19926;-79
2022/03/07 17:33:27;;;;;;;;;;;;;;;2.49;43.19;100538.28;12237286;19;19911;-79
2022/03/07 17:37:34;;;;;;;;;;;;;;;2.27;43.73;100535.34;12219456;19;20131;-78
2022/03/07 17:41:36;;;;;;;;;;;;;;;2.08;43.56;100530.31;12202879;19;19918;-79
2022/03/07 17:45:38;;;;;;;;;;;;;;;1.91;44.15;100537.72;12174737;19;20381;-78
2022/03/07 17:49:39;;;;;;;;;;;;;;;1.73;44.37;100539.84;12200949;19;19914;-79
2022/03/07 17:53:41;;;;;;;;;;;;;;;1.57;44.95;100540.69;12189318;19;19921;-79
2022/03/07 17:57:43;;;;;;;;;;;;;;;1.42;45.20;100547.88;12178320;19;19974;-78
2022/03/07 18:01:45;;;;;;;;;;;;;;;1.39;46.80;100553.66;12204630;19;19954;-79
2022/03/07 18:05:47;;;;;;;;;;;;;;;1.32;46.25;100557.06;12197897;19;19923;-80
2022/03/07 18:09:49;;;;;;;;;;;;;;;1.20;46.22;100553.00;12180871;19;19922;-80
2022/03/07 18:13:51;;;;;;;;;;;;;;;1.07;46.31;100556.22;12201802;19;19952;-79
2022/03/07 18:17:55;;;;;;;;;;;;;;;0.97;46.25;100560.97;12208778;19;19974;-80
2022/03/07 18:21:56;;;;;;;;;;;;;;;0.89;46.50;100558.22;12179856;19;19918;-79
2022/03/07 18:25:58;;;;;;;;;;;;;;;0.82;46.97;100568.09;12195333;19;19922;-79
2022/03/07 18:30:01;;;;;;;;;;;;;;;0.74;47.14;100566.19;12205044;19;19926;-79
2022/03/07 18:34:06;;;;;;;;;;;;;;;0.68;46.91;100567.75;12171684;19;19939;-80
2022/03/07 18:38:08;;;;;;;;;;;;;;;0.61;47.24;100566.69;12204884;19;20261;-80
2022/03/07 18:42:10;;;;;;;;;;;;;;;0.53;47.46;100565.81;12193382;19;19991;-80
2022/03/07 18:46:12;;;;;;;;;;;;;;;0.44;47.36;100564.94;12176639;19;19994;-81
2022/03/07 18:50:15;;;;;;;;;;;;;;;0.38;47.54;100560.19;12218389;19;19954;-80
2022/03/07 18:54:18;;;;;;;;;;;;;;;0.32;47.88;100561.69;12205062;19;19914;-80
2022/03/07 18:58:27;;;;;;;;;;;;;;;0.26;48.19;100567.78;12187064;19;19935;-82
2022/03/07 19:02:37;;;;;;;;;;;;;;;0.22;48.11;100577.28;12222180;19;19918;-79
2022/03/07 19:06:39;;;;;;;;;;;;;;;0.19;48.47;100583.00;12196119;19;19918;-79
2022/03/07 19:10:41;;;;;;;;;;;;;;;0.15;48.49;100581.63;12209613;19;20507;-80
2022/03/07 19:14:43;;;;;;;;;;;;;;;0.10;48.48;100581.28;12204884;19;19921;-79
2022/03/07 19:18:45;;;;;;;;;;;;;;;0.06;48.47;100583.47;12191861;19;19915;-79
2022/03/07 19:22:46;;;;;;;;;;;;;;;0.03;49.33;100583.81;12212892;19;19903;-81
2022/03/07 19:26:48;;;;;;;;;;;;;;;-0.02;49.24;100587.00;12208926;19;19974;-81